createdAt,value
2019-05-22T00:00:14.414Z,1004.46
2019-05-22T00:01:14.440Z,1004.48
2019-05-22T00:02:14.403Z,1004.44
2019-05-22T00:03:14.391Z,1004.48
2019-05-22T00:04:14.387Z,1004.49
2019-05-22T00:05:14.410Z,1004.47
2019-05-22T00:06:14.385Z,1004.51
2019-05-22T00:07:14.391Z,1004.50
2019-05-22T00:08:14.427Z,1004.48
2019-05-22T00:09:14.393Z,1004.48
2019-05-22T00:10:14.402Z,1004.50
2019-05-22T00:11:14.384Z,1004.49
2019-05-22T00:12:14.404Z,1004.45
2019-05-22T00:13:14.400Z,1004.44
2019-05-22T00:14:14.372Z,1004.44
2019-05-22T00:15:14.359Z,1004.43
2019-05-22T00:16:14.341Z,1004.47
2019-05-22T00:17:14.350Z,1004.49
2019-05-22T00:18:14.373Z,1004.46
2019-05-22T00:19:14.361Z,1004.51
2019-05-22T00:20:14.348Z,1004.50
2019-05-22T00:21:14.331Z,1004.51
2019-05-22T00:22:14.363Z,1004.52
2019-05-22T00:23:14.326Z,1004.55
2019-05-22T00:24:14.323Z,1004.59
2019-05-22T00:25:14.340Z,1004.56
2019-05-22T00:26:14.324Z,1004.58
2019-05-22T00:27:14.306Z,1004.57
2019-05-22T00:28:14.328Z,1004.60
2019-05-22T00:29:14.303Z,1004.57
2019-05-22T00:30:14.323Z,1004.56
2019-05-22T00:31:14.319Z,1004.55
2019-05-22T00:32:14.360Z,1004.57
2019-05-22T00:33:14.344Z,1004.58
2019-05-22T00:34:14.367Z,1004.57
2019-05-22T00:35:14.315Z,1004.60
2019-05-22T00:36:14.291Z,1004.58
2019-05-22T00:37:14.286Z,1004.57
2019-05-22T00:38:14.298Z,1004.59
2019-05-22T00:39:14.300Z,1004.59
2019-05-22T00:40:14.273Z,1004.61
2019-05-22T00:41:14.350Z,1004.61
2019-05-22T00:42:14.259Z,1004.63
2019-05-22T00:43:14.623Z,1004.63
2019-05-22T00:44:14.302Z,1004.65
2019-05-22T00:45:14.257Z,1004.64
2019-05-22T00:46:14.301Z,1004.65
2019-05-22T00:47:14.255Z,1004.65
2019-05-22T00:48:14.250Z,1004.66
2019-05-22T00:49:14.258Z,1004.66
2019-05-22T00:50:14.242Z,1004.65
2019-05-22T00:51:14.290Z,1004.65
2019-05-22T00:52:14.232Z,1004.66
2019-05-22T00:53:14.247Z,1004.65
2019-05-22T00:54:14.232Z,1004.65
2019-05-22T00:55:14.247Z,1004.62
2019-05-22T00:56:14.252Z,1004.67
2019-05-22T00:57:14.227Z,1004.65
2019-05-22T00:58:14.227Z,1004.67
2019-05-22T00:59:14.212Z,1004.68
2019-05-22T01:00:14.221Z,1004.69
2019-05-22T01:01:14.204Z,1004.66
2019-05-22T01:02:14.198Z,1004.66
2019-05-22T01:03:14.184Z,1004.68
2019-05-22T01:04:14.193Z,1004.69
2019-05-22T01:05:14.188Z,1004.68
2019-05-22T01:06:14.176Z,1004.69
2019-05-22T01:07:14.205Z,1004.71
2019-05-22T01:08:14.205Z,1004.73
2019-05-22T01:09:14.188Z,1004.66
2019-05-22T01:10:14.200Z,1004.74
2019-05-22T01:11:14.158Z,1004.71
2019-05-22T01:12:14.154Z,1004.70
2019-05-22T01:13:14.152Z,1004.72
2019-05-22T01:14:14.180Z,1004.69
2019-05-22T01:15:14.140Z,1004.71
2019-05-22T01:16:14.154Z,1004.72
2019-05-22T01:17:14.195Z,1004.66
2019-05-22T01:18:14.152Z,1004.72
2019-05-22T01:19:14.151Z,1004.71
2019-05-22T01:20:14.177Z,1004.70
2019-05-22T01:21:14.130Z,1004.70
2019-05-22T01:22:14.183Z,1004.72
2019-05-22T01:23:14.148Z,1004.68
2019-05-22T01:24:14.140Z,1004.72
2019-05-22T01:25:14.142Z,1004.73
2019-05-22T01:26:14.111Z,1004.74
2019-05-22T01:27:14.238Z,1004.77
2019-05-22T01:28:14.120Z,1004.73
2019-05-22T01:29:22.840Z,1004.75
2019-05-22T01:32:38.225Z,1004.72
2019-05-22T01:33:45.838Z,1004.73
2019-05-22T01:35:51.634Z,1004.74
2019-05-22T01:39:01.997Z,1004.78
2019-05-22T01:40:02.021Z,1004.74
2019-05-22T01:41:02.135Z,1004.78
2019-05-22T01:42:01.980Z,1004.75
2019-05-22T01:43:01.884Z,1004.77
2019-05-22T01:44:01.888Z,1004.74
2019-05-22T01:45:06.491Z,1004.74
2019-05-22T01:46:01.922Z,1004.77
2019-05-22T01:47:01.867Z,1004.81
2019-05-22T01:48:01.885Z,1004.77
2019-05-22T01:49:01.905Z,1004.78
2019-05-22T01:50:01.876Z,1004.78
2019-05-22T01:51:01.929Z,1004.74
2019-05-22T01:52:01.864Z,1004.80
2019-05-22T01:53:01.831Z,1004.81
2019-05-22T01:54:01.892Z,1004.74
2019-05-22T01:55:01.876Z,1004.77
2019-05-22T01:56:01.827Z,1004.78
2019-05-22T01:57:01.813Z,1004.81
2019-05-22T01:58:01.874Z,1004.82
2019-05-22T01:59:01.800Z,1004.80
2019-05-22T02:00:01.792Z,1004.76
2019-05-22T02:01:01.815Z,1004.77
2019-05-22T02:02:01.866Z,1004.79
2019-05-22T02:03:01.788Z,1004.78
2019-05-22T02:04:01.831Z,1004.78
2019-05-22T02:05:01.798Z,1004.78
2019-05-22T02:06:01.817Z,1004.76
2019-05-22T02:07:01.807Z,1004.76
2019-05-22T02:08:01.783Z,1004.76
2019-05-22T02:09:01.800Z,1004.73
2019-05-22T02:10:01.856Z,1004.78
2019-05-22T02:11:01.825Z,1004.77
2019-05-22T02:12:01.763Z,1004.75
2019-05-22T02:13:01.830Z,1004.77
2019-05-22T02:14:01.761Z,1004.80
2019-05-22T02:15:01.790Z,1004.77
2019-05-22T02:16:01.763Z,1004.78
2019-05-22T02:17:01.747Z,1004.82
2019-05-22T02:18:01.728Z,1004.77
2019-05-22T02:19:01.744Z,1004.74
2019-05-22T02:20:01.726Z,1004.76
2019-05-22T02:21:01.727Z,1004.77
2019-05-22T02:22:01.749Z,1004.72
2019-05-22T02:23:01.737Z,1004.75
2019-05-22T02:24:01.766Z,1004.73
2019-05-22T02:25:01.721Z,1004.75
2019-05-22T02:26:01.715Z,1004.73
2019-05-22T02:27:02.075Z,1004.77
2019-05-22T02:28:01.700Z,1004.73
2019-05-22T02:29:01.689Z,1004.77
2019-05-22T02:30:01.703Z,1004.80
2019-05-22T02:31:01.692Z,1004.77
2019-05-22T02:32:01.681Z,1004.74
2019-05-22T02:33:01.704Z,1004.77
2019-05-22T02:34:01.721Z,1004.79
2019-05-22T02:35:01.774Z,1004.80
2019-05-22T02:36:01.682Z,1004.82
2019-05-22T02:37:01.739Z,1004.82
2019-05-22T02:38:01.688Z,1004.82
2019-05-22T02:39:01.671Z,1004.80
2019-05-22T02:40:01.692Z,1004.79
2019-05-22T02:41:01.663Z,1004.82
2019-05-22T02:42:01.666Z,1004.81
2019-05-22T02:43:01.682Z,1004.80
2019-05-22T02:44:01.654Z,1004.81
2019-05-22T02:45:01.688Z,1004.82
2019-05-22T02:46:01.625Z,1004.83
2019-05-22T02:47:17.994Z,1004.82
2019-05-22T02:48:01.618Z,1004.81
2019-05-22T02:49:01.631Z,1004.80
2019-05-22T02:50:01.715Z,1004.83
2019-05-22T02:51:01.661Z,1004.84
2019-05-22T02:52:01.608Z,1004.83
2019-05-22T02:53:01.652Z,1004.85
2019-05-22T02:54:01.636Z,1004.86
2019-05-22T02:55:01.630Z,1004.81
2019-05-22T02:56:02.879Z,1004.81
2019-05-22T02:57:01.638Z,1004.81
2019-05-22T02:58:01.572Z,1004.84
2019-05-22T02:59:01.582Z,1004.78
2019-05-22T03:00:01.758Z,1004.83
2019-05-22T03:01:01.601Z,1004.80
2019-05-22T03:02:01.585Z,1004.84
2019-05-22T03:03:01.589Z,1004.80
2019-05-22T03:04:01.562Z,1004.83
2019-05-22T03:05:01.635Z,1004.82
2019-05-22T03:06:01.568Z,1004.88
2019-05-22T03:07:01.581Z,1004.88
2019-05-22T03:08:01.556Z,1004.85
2019-05-22T03:09:01.565Z,1004.89
2019-05-22T03:10:01.561Z,1004.84
2019-05-22T03:11:01.535Z,1004.88
2019-05-22T03:12:01.536Z,1004.89
2019-05-22T03:13:01.755Z,1004.90
2019-05-22T03:14:01.581Z,1004.86
2019-05-22T03:15:01.527Z,1004.86
2019-05-22T03:16:01.518Z,1004.87
2019-05-22T03:17:01.515Z,1004.87
2019-05-22T03:18:01.566Z,1004.88
2019-05-22T03:19:08.901Z,1004.88
2019-05-22T03:20:01.530Z,1004.90
2019-05-22T03:21:01.506Z,1004.89
2019-05-22T03:22:01.534Z,1004.89
2019-05-22T03:23:01.500Z,1004.90
2019-05-22T03:24:01.499Z,1004.89
2019-05-22T03:25:01.528Z,1004.88
2019-05-22T03:26:01.506Z,1004.91
2019-05-22T03:29:31.996Z,1004.90
2019-05-22T03:30:31.956Z,1004.95
2019-05-22T03:31:31.964Z,1004.90
2019-05-22T03:32:31.967Z,1004.93
2019-05-22T03:33:31.968Z,1004.92
2019-05-22T03:34:31.963Z,1004.90
2019-05-22T03:35:31.979Z,1004.95
2019-05-22T03:36:31.947Z,1004.94
2019-05-22T03:37:31.948Z,1004.98
2019-05-22T03:38:31.944Z,1004.92
2019-05-22T03:39:31.957Z,1004.98
2019-05-22T03:40:31.940Z,1004.99
2019-05-22T03:41:31.949Z,1005.00
2019-05-22T03:42:31.937Z,1004.99
2019-05-22T03:43:32.040Z,1004.99
2019-05-22T03:44:31.948Z,1004.98
2019-05-22T03:45:31.946Z,1004.98
2019-05-22T03:46:31.926Z,1005.03
2019-05-22T03:47:31.902Z,1005.03
2019-05-22T03:48:31.904Z,1005.00
2019-05-22T03:49:31.931Z,1005.03
2019-05-22T03:50:31.929Z,1005.04
2019-05-22T03:51:31.885Z,1005.05
2019-05-22T03:52:31.906Z,1005.01
2019-05-22T03:53:31.928Z,1005.04
2019-05-22T03:54:31.883Z,1005.03
2019-05-22T03:55:31.862Z,1005.06
2019-05-22T03:56:31.866Z,1005.04
2019-05-22T03:57:31.913Z,1005.04
2019-05-22T03:58:31.859Z,1005.05
2019-05-22T03:59:31.956Z,1005.07
2019-05-22T04:00:31.878Z,1005.05
2019-05-22T04:01:31.864Z,1005.07
2019-05-22T04:02:31.898Z,1005.04
2019-05-22T04:03:31.861Z,1005.05
2019-05-22T04:04:31.862Z,1005.04
2019-05-22T04:05:31.833Z,1005.07
2019-05-22T04:24:13.393Z,1005.26
2019-05-22T04:25:13.508Z,1005.28
2019-05-22T04:26:13.332Z,1005.27
2019-05-22T04:27:13.473Z,1005.26
2019-05-22T04:28:13.330Z,1005.29
2019-05-22T04:29:13.279Z,1005.26
2019-05-22T04:30:13.301Z,1005.27
2019-05-22T04:31:13.304Z,1005.29
2019-05-22T04:32:13.267Z,1005.31
2019-05-22T04:33:13.286Z,1005.32
2019-05-22T04:34:13.244Z,1005.33
2019-05-22T04:35:13.297Z,1005.37
2019-05-22T04:36:13.219Z,1005.36
2019-05-22T04:37:13.208Z,1005.34
2019-05-22T04:38:13.254Z,1005.36
2019-05-22T04:39:13.250Z,1005.41
2019-05-22T04:40:13.219Z,1005.39
2019-05-22T04:41:13.197Z,1005.43
2019-05-22T04:42:13.189Z,1005.45
2019-05-22T04:43:13.198Z,1005.43
2019-05-22T04:44:13.256Z,1005.44
2019-05-22T04:45:13.262Z,1005.46
2019-05-22T04:46:13.183Z,1005.43
2019-05-22T04:47:13.169Z,1005.46
2019-05-22T04:48:13.153Z,1005.47
2019-05-22T04:49:13.155Z,1005.50
2019-05-22T04:50:13.164Z,1005.48
2019-05-22T04:51:13.170Z,1005.53
2019-05-22T04:52:13.159Z,1005.48
2019-05-22T04:53:13.181Z,1005.55
2019-05-22T04:54:13.149Z,1005.56
2019-05-22T04:55:13.168Z,1005.56
2019-05-22T04:56:13.141Z,1005.53
2019-05-22T04:57:13.126Z,1005.56
2019-05-22T04:58:13.155Z,1005.54
2019-05-22T04:59:13.165Z,1005.50
2019-05-22T05:00:13.151Z,1005.55
2019-05-22T05:01:13.135Z,1005.53
2019-05-22T05:02:13.126Z,1005.56
2019-05-22T05:03:13.159Z,1005.59
2019-05-22T05:04:13.102Z,1005.63
2019-05-22T05:05:13.120Z,1005.67
2019-05-22T05:06:13.125Z,1005.67
2019-05-22T05:07:13.097Z,1005.69
2019-05-22T05:08:13.079Z,1005.73
2019-05-22T05:09:13.122Z,1005.73
2019-05-22T05:10:13.113Z,1005.76
2019-05-22T05:11:13.129Z,1005.77
2019-05-22T05:12:13.124Z,1005.75
2019-05-22T05:13:13.097Z,1005.75
2019-05-22T05:14:13.064Z,1005.73
2019-05-22T05:15:13.057Z,1005.76
2019-05-22T05:16:13.047Z,1005.75
2019-05-22T05:17:13.086Z,1005.74
2019-05-22T05:18:13.065Z,1005.73
2019-05-22T05:19:13.068Z,1005.77
2019-05-22T05:20:22.190Z,1005.76
2019-05-22T05:21:13.066Z,1005.72
2019-05-22T05:22:13.023Z,1005.77
2019-05-22T05:23:13.117Z,1005.74
2019-05-22T05:24:13.131Z,1005.78
2019-05-22T05:25:13.055Z,1005.75
2019-05-22T05:26:13.008Z,1005.86
2019-05-22T05:27:13.055Z,1005.81
2019-05-22T05:28:13.009Z,1005.77
2019-05-22T05:29:13.027Z,1005.79
2019-05-22T05:30:13.018Z,1005.84
2019-05-22T05:31:13.020Z,1005.86
2019-05-22T05:32:12.986Z,1005.85
2019-05-22T05:33:13.085Z,1005.82
2019-05-22T05:34:13.034Z,1005.86
2019-05-22T05:35:13.029Z,1005.83
2019-05-22T05:36:13.019Z,1005.83
2019-05-22T05:37:12.969Z,1005.84
2019-05-22T05:38:12.969Z,1005.83
2019-05-22T05:39:12.978Z,1005.84
2019-05-22T05:40:12.975Z,1005.86
2019-05-22T05:41:12.950Z,1005.84
2019-05-22T05:42:12.958Z,1005.91
2019-05-22T05:43:12.940Z,1005.87
2019-05-22T05:44:13.005Z,1005.90
2019-05-22T05:45:13.810Z,1005.88
2019-05-22T05:46:12.932Z,1005.92
2019-05-22T05:47:12.965Z,1005.91
2019-05-22T05:48:12.970Z,1005.93
2019-05-22T05:49:12.933Z,1005.92
2019-05-22T05:50:12.983Z,1005.91
2019-05-22T05:51:12.950Z,1005.92
2019-05-22T05:52:12.918Z,1005.94
2019-05-22T05:53:12.924Z,1005.92
2019-05-22T05:54:12.920Z,1005.96
2019-05-22T05:55:12.938Z,1005.98
2019-05-22T05:56:21.762Z,1005.93
2019-05-22T05:58:26.540Z,1005.97
2019-05-22T05:59:17.382Z,1005.98
2019-05-22T06:00:17.393Z,1005.98
2019-05-22T06:01:17.676Z,1006.00
2019-05-22T06:02:17.388Z,1006.02
2019-05-22T06:04:49.671Z,1006.05
2019-05-22T06:07:40.130Z,1006.06
2019-05-22T06:08:28.986Z,1006.11
2019-05-22T06:09:37.814Z,1006.08
2019-05-22T06:11:33.446Z,1006.11
2019-05-22T06:12:33.485Z,1006.12
2019-05-22T06:13:42.219Z,1006.12
2019-05-22T06:15:46.414Z,1006.12
2019-05-22T06:16:37.949Z,1006.16
2019-05-22T06:17:37.931Z,1006.17
2019-05-22T06:18:37.947Z,1006.18
2019-05-22T06:19:37.949Z,1006.20
2019-05-22T06:20:37.862Z,1006.18
2019-05-22T06:21:37.856Z,1006.21
2019-05-22T06:22:37.875Z,1006.19
2019-05-22T06:23:37.867Z,1006.23
2019-05-22T06:24:37.854Z,1006.21
2019-05-22T06:25:37.873Z,1006.24
2019-05-22T06:26:37.837Z,1006.27
2019-05-22T06:27:37.859Z,1006.27
2019-05-22T06:28:37.849Z,1006.30
2019-05-22T06:29:37.863Z,1006.33
2019-05-22T06:30:37.856Z,1006.28
2019-05-22T06:31:37.823Z,1006.30
2019-05-22T06:32:37.820Z,1006.29
2019-05-22T06:33:37.838Z,1006.29
2019-05-22T06:34:37.841Z,1006.30
2019-05-22T06:35:37.841Z,1006.32
2019-05-22T06:36:37.806Z,1006.32
2019-05-22T06:37:37.851Z,1006.35
2019-05-22T06:38:37.830Z,1006.34
2019-05-22T06:39:37.822Z,1006.37
2019-05-22T06:40:37.805Z,1006.34
2019-05-22T06:41:37.798Z,1006.34
2019-05-22T06:42:37.789Z,1006.39
2019-05-22T06:43:37.784Z,1006.40
2019-05-22T06:44:37.816Z,1006.34
2019-05-22T06:45:37.778Z,1006.38
2019-05-22T06:46:37.831Z,1006.38
2019-05-22T06:47:37.808Z,1006.36
2019-05-22T06:48:37.776Z,1006.35
2019-05-22T06:49:37.820Z,1006.36
2019-05-22T06:50:37.790Z,1006.36
2019-05-22T06:51:37.767Z,1006.36
2019-05-22T06:52:37.764Z,1006.37
2019-05-22T06:53:37.784Z,1006.37
2019-05-22T06:54:37.799Z,1006.39
2019-05-22T06:55:37.783Z,1006.37
2019-05-22T06:56:37.786Z,1006.39
2019-05-22T06:57:37.784Z,1006.40
2019-05-22T06:58:37.800Z,1006.39
2019-05-22T06:59:37.748Z,1006.37
2019-05-22T07:00:37.760Z,1006.39
2019-05-22T07:01:37.799Z,1006.41
2019-05-22T07:02:37.742Z,1006.42
2019-05-22T07:03:37.978Z,1006.45
2019-05-22T07:04:37.741Z,1006.48
2019-05-22T07:05:37.789Z,1006.48
2019-05-22T07:06:37.760Z,1006.52
2019-05-22T07:07:37.728Z,1006.51
2019-05-22T07:08:37.766Z,1006.53
2019-05-22T07:09:37.756Z,1006.53
2019-05-22T07:10:37.744Z,1006.53
2019-05-22T07:11:37.764Z,1006.54
2019-05-22T07:12:37.750Z,1006.54
2019-05-22T07:13:37.743Z,1006.54
2019-05-22T07:14:37.705Z,1006.58
2019-05-22T07:15:37.710Z,1006.59
2019-05-22T07:16:37.706Z,1006.58
2019-05-22T07:17:37.728Z,1006.58
2019-05-22T07:18:37.730Z,1006.58
2019-05-22T07:19:37.698Z,1006.59
2019-05-22T07:20:37.745Z,1006.58
2019-05-22T07:21:37.693Z,1006.65
2019-05-22T07:22:37.738Z,1006.61
2019-05-22T07:23:37.700Z,1006.67
2019-05-22T07:24:37.699Z,1006.68
2019-05-22T07:25:37.684Z,1006.66
2019-05-22T07:26:37.728Z,1006.66
2019-05-22T07:27:37.686Z,1006.65
2019-05-22T07:28:37.748Z,1006.67
2019-05-22T07:29:37.703Z,1006.67
2019-05-22T07:30:37.700Z,1006.67
2019-05-22T07:31:37.701Z,1006.70
2019-05-22T07:32:37.709Z,1006.71
2019-05-22T07:33:37.689Z,1006.73
2019-05-22T07:34:37.666Z,1006.73
2019-05-22T07:35:56.004Z,1006.73
2019-05-22T07:36:37.672Z,1006.70
2019-05-22T07:37:37.658Z,1006.70
2019-05-22T07:38:37.653Z,1006.71
2019-05-22T07:39:37.661Z,1006.72
2019-05-22T07:40:37.662Z,1006.77
2019-05-22T07:41:37.677Z,1006.72
2019-05-22T07:42:37.672Z,1006.73
2019-05-22T07:43:41.243Z,1006.70
2019-05-22T07:44:37.654Z,1006.77
2019-05-22T07:45:37.661Z,1006.73
2019-05-22T07:46:37.650Z,1006.80
2019-05-22T07:47:37.688Z,1006.74
2019-05-22T07:48:37.664Z,1006.74
2019-05-22T07:49:37.639Z,1006.74
2019-05-22T07:50:37.627Z,1006.72
2019-05-22T07:51:51.392Z,1006.71
2019-05-22T07:52:37.663Z,1006.77
2019-05-22T07:53:37.635Z,1006.79
2019-05-22T07:54:37.622Z,1006.79
2019-05-22T07:55:37.707Z,1006.79
2019-05-22T07:56:37.633Z,1006.77
2019-05-22T07:57:37.697Z,1006.77
2019-05-22T07:58:37.653Z,1006.77
2019-05-22T07:59:37.637Z,1006.73
2019-05-22T08:00:37.717Z,1006.76
2019-05-22T08:01:37.613Z,1006.77
2019-05-22T08:02:37.627Z,1006.70
2019-05-22T08:03:37.657Z,1006.71
2019-05-22T08:04:37.622Z,1006.71
2019-05-22T08:05:37.620Z,1006.71
2019-05-22T08:06:37.658Z,1006.70
2019-05-22T08:07:37.636Z,1006.67
2019-05-22T08:08:37.636Z,1006.63
2019-05-22T08:09:37.609Z,1006.69
2019-05-22T08:10:37.641Z,1006.66
2019-05-22T08:11:37.605Z,1006.69
2019-05-22T08:12:37.652Z,1006.69
2019-05-22T08:13:37.739Z,1006.69
2019-05-22T08:14:37.591Z,1006.73
2019-05-22T08:15:37.691Z,1006.72
2019-05-22T08:16:37.594Z,1006.70
2019-05-22T08:17:37.633Z,1006.69
2019-05-22T08:18:37.584Z,1006.70
2019-05-22T08:19:37.605Z,1006.71
2019-05-22T08:20:37.592Z,1006.73
2019-05-22T08:21:37.618Z,1006.73
2019-05-22T08:22:37.588Z,1006.73
2019-05-22T08:23:37.630Z,1006.74
2019-05-22T08:24:37.577Z,1006.72
2019-05-22T08:25:37.587Z,1006.75
2019-05-22T08:26:53.291Z,1006.75
2019-05-22T08:27:37.595Z,1006.78
2019-05-22T08:28:37.610Z,1006.78
2019-05-22T08:29:37.605Z,1006.81
2019-05-22T08:30:37.607Z,1006.84
2019-05-22T08:31:37.670Z,1006.86
2019-05-22T08:32:37.602Z,1006.87
2019-05-22T08:33:37.590Z,1006.86
2019-05-22T08:34:37.602Z,1006.88
2019-05-22T08:35:37.573Z,1006.85
2019-05-22T08:36:38.767Z,1006.85
2019-05-22T08:37:37.594Z,1006.86
2019-05-22T08:38:37.601Z,1006.87
2019-05-22T08:39:37.580Z,1006.90
2019-05-22T08:40:37.622Z,1006.90
2019-05-22T08:41:37.563Z,1006.91
2019-05-22T08:42:37.564Z,1006.89
2019-05-22T08:44:03.418Z,1006.88
2019-05-22T08:44:37.558Z,1006.91
2019-05-22T08:45:37.575Z,1006.91
2019-05-22T08:46:37.578Z,1006.93
2019-05-22T08:47:37.590Z,1006.91
2019-05-22T08:48:37.584Z,1006.95
2019-05-22T08:49:37.564Z,1006.93
2019-05-22T08:50:37.595Z,1006.88
2019-05-22T08:51:37.547Z,1006.90
2019-05-22T08:52:37.556Z,1006.93
2019-05-22T08:53:46.877Z,1006.92
2019-05-22T08:54:37.570Z,1006.92
2019-05-22T08:55:37.672Z,1006.97
2019-05-22T08:56:37.569Z,1006.99
2019-05-22T08:57:37.579Z,1006.98
2019-05-22T08:58:37.661Z,1006.98
2019-05-22T08:59:37.549Z,1006.99
2019-05-22T09:00:37.550Z,1006.98
2019-05-22T09:03:10.705Z,1006.98
2019-05-22T09:04:19.402Z,1006.97
2019-05-22T09:06:15.181Z,1006.95
2019-05-22T09:07:15.172Z,1006.92
2019-05-22T09:08:15.203Z,1006.91
2019-05-22T09:09:15.180Z,1006.94
2019-05-22T09:10:15.185Z,1006.91
2019-05-22T09:11:15.165Z,1006.93
2019-05-22T09:12:15.188Z,1006.90
2019-05-22T09:13:15.182Z,1006.90
2019-05-22T09:14:15.154Z,1006.94
2019-05-22T09:15:15.181Z,1006.94
2019-05-22T09:16:15.189Z,1006.94
2019-05-22T09:17:15.172Z,1006.97
2019-05-22T09:18:15.156Z,1006.97
2019-05-22T09:19:15.170Z,1006.98
2019-05-22T09:20:15.173Z,1006.98
2019-05-22T09:21:15.199Z,1006.99
2019-05-22T09:22:15.148Z,1006.99
2019-05-22T09:23:15.182Z,1006.99
2019-05-22T09:24:15.153Z,1006.98
2019-05-22T09:25:15.148Z,1007.01
2019-05-22T09:26:15.269Z,1007.02
2019-05-22T09:27:15.175Z,1007.00
2019-05-22T09:28:15.205Z,1007.00
2019-05-22T09:29:15.135Z,1007.02
2019-05-22T09:30:15.142Z,1007.04
2019-05-22T09:31:24.044Z,1007.08
2019-05-22T09:34:39.168Z,1007.03
2019-05-22T09:35:37.996Z,1007.09
2019-05-22T09:36:38.022Z,1007.06
2019-05-22T09:37:38.006Z,1007.08
2019-05-22T09:38:38.015Z,1007.07
2019-05-22T09:39:38.006Z,1007.09
2019-05-22T09:40:37.982Z,1007.08
2019-05-22T09:41:38.007Z,1007.14
2019-05-22T09:42:37.981Z,1007.12
2019-05-22T09:43:37.982Z,1007.14
2019-05-22T09:44:37.985Z,1007.12
2019-05-22T09:45:37.990Z,1007.13
2019-05-22T09:46:38.008Z,1007.10
2019-05-22T09:47:38.040Z,1007.12
2019-05-22T09:48:38.017Z,1007.11
2019-05-22T09:49:38.008Z,1007.09
2019-05-22T09:50:37.997Z,1007.12
2019-05-22T09:51:38.016Z,1007.11
2019-05-22T09:52:38.001Z,1007.07
2019-05-22T09:53:37.977Z,1007.10
2019-05-22T09:54:37.992Z,1007.12
2019-05-22T09:55:37.991Z,1007.06
2019-05-22T09:56:37.968Z,1007.06
2019-05-22T09:57:37.969Z,1007.10
2019-05-22T09:58:37.973Z,1007.09
2019-05-22T09:59:37.960Z,1007.10
2019-05-22T10:00:37.976Z,1007.11
2019-05-22T10:01:37.990Z,1007.05
2019-05-22T10:02:37.977Z,1007.09
2019-05-22T10:03:37.993Z,1007.05
2019-05-22T10:04:37.999Z,1007.06
2019-05-22T10:05:38.040Z,1007.05
2019-05-22T10:06:37.961Z,1007.09
2019-05-22T10:07:38.047Z,1007.10
2019-05-22T10:08:37.985Z,1007.10
2019-05-22T10:09:37.957Z,1007.07
2019-05-22T10:10:37.956Z,1007.10
2019-05-22T10:11:37.985Z,1007.11
2019-05-22T10:12:37.974Z,1007.11
2019-05-22T10:13:38.315Z,1007.15
2019-05-22T10:14:37.969Z,1007.12
2019-05-22T10:15:37.973Z,1007.12
2019-05-22T10:16:37.974Z,1007.12
2019-05-22T10:17:37.985Z,1007.13
2019-05-22T10:18:37.991Z,1007.12
2019-05-22T10:19:37.975Z,1007.15
2019-05-22T10:20:37.987Z,1007.13
2019-05-22T10:21:37.969Z,1007.16
2019-05-22T10:22:37.996Z,1007.15
2019-05-22T10:23:37.995Z,1007.17
2019-05-22T10:24:37.948Z,1007.13
2019-05-22T10:25:37.949Z,1007.19
2019-05-22T10:26:46.622Z,1007.16
2019-05-22T10:28:42.487Z,1007.17
2019-05-22T10:29:42.477Z,1007.16
2019-05-22T10:30:42.464Z,1007.20
2019-05-22T10:31:42.460Z,1007.17
2019-05-22T10:32:42.477Z,1007.21
2019-05-22T10:33:42.514Z,1007.18
2019-05-22T10:34:42.504Z,1007.20
2019-05-22T10:35:42.513Z,1007.20
2019-05-22T10:36:43.208Z,1007.23
2019-05-22T10:37:42.502Z,1007.20
2019-05-22T10:38:42.506Z,1007.17
2019-05-22T10:39:42.471Z,1007.24
2019-05-22T10:40:42.517Z,1007.22
2019-05-22T10:41:42.494Z,1007.25
2019-05-22T10:42:45.034Z,1007.21
2019-05-22T10:43:42.469Z,1007.23
2019-05-22T10:44:42.462Z,1007.21
2019-05-22T10:45:42.476Z,1007.21
2019-05-22T10:46:42.474Z,1007.22
2019-05-22T10:47:42.448Z,1007.21
2019-05-22T10:48:42.481Z,1007.22
2019-05-22T10:49:42.493Z,1007.20
2019-05-22T10:50:42.469Z,1007.21
2019-05-22T10:51:42.481Z,1007.18
2019-05-22T10:52:42.435Z,1007.15
2019-05-22T10:53:42.437Z,1007.15
2019-05-22T10:54:42.493Z,1007.20
2019-05-22T10:55:42.497Z,1007.15
2019-05-22T10:56:52.006Z,1007.20
2019-05-22T10:58:46.955Z,1007.17
2019-05-22T10:59:46.950Z,1007.11
2019-05-22T11:00:46.967Z,1007.09
2019-05-22T11:01:46.950Z,1007.12
2019-05-22T11:02:46.926Z,1007.09
2019-05-22T11:03:46.922Z,1007.05
2019-05-22T11:04:46.929Z,1007.09
2019-05-22T11:06:06.664Z,1007.08
2019-05-22T11:07:51.464Z,1007.10
2019-05-22T11:08:51.433Z,1007.10
2019-05-22T11:09:51.447Z,1007.09
2019-05-22T11:10:51.436Z,1007.10
2019-05-22T11:11:51.442Z,1007.14
2019-05-22T11:12:51.440Z,1007.10
2019-05-22T11:14:01.176Z,1007.12
2019-05-22T11:14:51.470Z,1007.17
2019-05-22T11:15:51.424Z,1007.10
2019-05-22T11:16:51.427Z,1007.17
2019-05-22T11:17:51.416Z,1007.19
2019-05-22T11:18:51.440Z,1007.15
2019-05-22T11:19:51.434Z,1007.14
2019-05-22T11:20:51.455Z,1007.10
2019-05-22T11:21:51.467Z,1007.13
2019-05-22T11:22:51.449Z,1007.12
2019-05-22T11:23:52.954Z,1007.14
2019-05-22T11:24:51.453Z,1007.15
2019-05-22T11:25:51.469Z,1007.13
2019-05-22T11:26:51.466Z,1007.13
2019-05-22T11:27:51.456Z,1007.13
2019-05-22T11:28:51.442Z,1007.11
2019-05-22T11:29:51.478Z,1007.08
2019-05-22T11:30:51.485Z,1007.12
2019-05-22T11:31:51.429Z,1007.13
2019-05-22T11:32:51.475Z,1007.16
2019-05-22T11:33:51.422Z,1007.14
2019-05-22T11:34:51.499Z,1007.16
2019-05-22T11:35:51.455Z,1007.17
2019-05-22T11:36:51.439Z,1007.20
2019-05-22T11:37:51.460Z,1007.15
2019-05-22T11:38:51.427Z,1007.15
2019-05-22T11:39:51.430Z,1007.15
2019-05-22T11:40:51.455Z,1007.18
2019-05-22T11:41:51.449Z,1007.10
2019-05-22T11:42:51.521Z,1007.08
2019-05-22T11:43:51.568Z,1007.07
2019-05-22T11:44:51.442Z,1007.05
2019-05-22T11:45:51.473Z,1007.07
2019-05-22T11:46:51.465Z,1007.08
2019-05-22T11:47:51.435Z,1007.12
2019-05-22T11:48:51.440Z,1007.12
2019-05-22T11:49:51.492Z,1007.12
2019-05-22T11:50:51.460Z,1007.08
2019-05-22T11:51:51.447Z,1007.06
2019-05-22T11:52:51.442Z,1007.05
2019-05-22T11:54:07.416Z,1007.08
2019-05-22T11:54:51.444Z,1007.04
2019-05-22T11:55:51.448Z,1007.01
2019-05-22T11:56:51.469Z,1007.05
2019-05-22T11:57:51.484Z,1007.00
2019-05-22T11:58:51.489Z,1007.02
2019-05-22T11:59:51.474Z,1007.05
2019-05-22T12:00:51.486Z,1007.04
2019-05-22T12:02:01.103Z,1007.08
2019-05-22T12:04:05.052Z,1007.04
2019-05-22T12:05:03.671Z,1007.05
2019-05-22T12:05:56.028Z,1007.04
2019-05-22T12:06:55.953Z,1007.03
2019-05-22T12:07:56.025Z,1007.06
2019-05-22T12:08:55.991Z,1007.05
2019-05-22T12:09:56.042Z,1007.05
2019-05-22T12:10:55.953Z,1007.08
2019-05-22T12:11:55.999Z,1007.08
2019-05-22T12:12:55.997Z,1007.01
2019-05-22T12:13:55.999Z,1007.02
2019-05-22T12:14:55.951Z,1007.01
2019-05-22T12:15:55.942Z,1007.02
2019-05-22T12:16:55.944Z,1007.04
2019-05-22T12:17:55.938Z,1007.04
2019-05-22T12:18:58.691Z,1007.08
2019-05-22T12:19:55.941Z,1007.02
2019-05-22T12:20:56.010Z,1007.00
2019-05-22T12:21:55.999Z,1007.01
2019-05-22T12:22:55.939Z,1007.01
2019-05-22T12:23:55.951Z,1007.03
2019-05-22T12:24:55.979Z,1007.00
2019-05-22T12:25:55.953Z,1007.00
2019-05-22T12:26:55.950Z,1007.00
2019-05-22T12:27:55.962Z,1007.01
2019-05-22T12:28:55.973Z,1007.00
2019-05-22T12:29:55.975Z,1007.02
2019-05-22T12:30:55.968Z,1006.98
2019-05-22T12:31:55.965Z,1006.99
2019-05-22T12:32:56.245Z,1006.97
2019-05-22T12:33:55.993Z,1007.00
2019-05-22T12:34:55.960Z,1006.94
2019-05-22T12:35:55.951Z,1007.00
2019-05-22T12:36:55.950Z,1006.99
2019-05-22T12:37:55.949Z,1006.99
2019-05-22T12:38:55.976Z,1007.01
2019-05-22T12:39:55.980Z,1006.98
2019-05-22T12:40:55.991Z,1007.07
2019-05-22T12:41:55.959Z,1007.07
2019-05-22T12:42:55.975Z,1007.06
2019-05-22T12:43:55.973Z,1007.03
2019-05-22T12:44:55.988Z,1007.04
2019-05-22T12:45:56.002Z,1007.02
2019-05-22T12:46:55.970Z,1007.04